Latest Coastal Weather Observations for Redland (Alexandra Hills)

IDQ60701

Issued at 9:32 am EST Wednesday 16 October 2019 (issued every 10 minutes, with the page automatically refreshed every 10 minutes)

About coastal observations | Map of coastal stations | Coastal observations for QLD | Marine services | Other Formats
Station Details ID: 140007 Name: REDLAND (ALEXANDRA HILLS) Lat: -27.54 Lon: 153.24 Height: 50.53 m
Data from the previous 72 hours. | See also: Recent months at Redland (Alexandra Hills)
Date/Time
EST
Wind Sea
Height
m
Swell Vis
km
Cloud Weather Temp
°C
Press
hPa
Rain since
9am
mm
Dir  Spd
kts
Gust
kts
Height
m
Period
s
Dir
16/09:30am N 9 13 - - - - - - - 24.0 - 0.0
16/09:00am N 8 14 - - - - - - - 23.5 - 0.0
16/08:30am NNW 6 11 - - - - - - - 22.6 - 0.0
16/08:00am N 7 13 - - - - - - - 22.4 - 0.0
16/07:30am NW 3 6 - - - - - - - 21.4 - 0.0
16/07:00am WNW 2 3 - - - - - - - 20.6 - 0.0
16/06:30am NW 3 5 - - - - - - - 20.4 - 0.0
16/06:00am NNW 3 4 - - - - - - - 19.8 - 0.0
16/05:30am WNW 2 4 - - - - - - - 19.8 - 0.0
16/05:00am N 3 5 - - - - - - - 19.7 - 0.0
16/04:30am N 3 5 - - - - - - - 19.8 - 0.0
16/04:00am N 4 6 - - - - - - - 19.8 - 0.0
16/03:30am N 2 4 - - - - - - - 19.6 - 0.0
16/03:00am N 3 4 - - - - - - - 19.9 - 0.0
16/02:30am N 3 5 - - - - - - - 19.9 - 0.0
16/02:00am NNE 3 5 - - - - - - - 20.1 - 0.0
16/01:30am NNE 2 4 - - - - - - - 20.4 - 0.0
16/01:00am N 4 5 - - - - - - - 20.6 - 0.0
16/12:30am NNE 5 7 - - - - - - - 20.7 - 0.0
16/12:00am N 6 9 - - - - - - - 20.9 - 0.0
 
Date/Time
EST
Wind Sea
Height
m
Swell Vis
km
Cloud Weather Temp
°C
Press
hPa
Rain since
9am
mm
Dir  Spd
kts
Gust
kts
Height
m
Period
s
Dir
15/11:30pm N 6 9 - - - - - - - 21.1 - 0.0
15/11:00pm NNE 6 10 - - - - - - - 21.1 - 0.0
15/10:30pm NNE 6 10 - - - - - - - 21.3 - 0.0
15/10:00pm NNE 5 9 - - - - - - - 21.1 - 0.0
15/09:30pm NNE 7 11 - - - - - - - 21.3 - 0.0
15/09:00pm NNE 6 11 - - - - - - - 21.4 - 0.0
15/08:30pm NNE 5 9 - - - - - - - 21.3 - 0.0
15/08:00pm NNE 6 9 - - - - - - - 21.5 - 0.0
15/07:30pm NNE 6 10 - - - - - - - 21.5 - 0.0
15/07:00pm NNE 7 11 - - - - - - - 21.6 - 0.0
15/06:30pm NNE 7 10 - - - - - - - 21.7 - 0.0
15/06:00pm NNE 7 11 - - - - - - - 21.9 - 0.0
15/05:30pm NNE 9 14 - - - - - - - 22.2 - 0.0
15/05:00pm NNE 9 14 - - - - - - - 22.6 - 0.0
15/04:30pm NNE 9 14 - - - - - - - 22.9 - 0.0
15/04:00pm NE 10 15 - - - - - - - 23.1 - 0.0
15/03:30pm NE 10 16 - - - - - - - 23.4 - 0.0
15/03:00pm NNE 9 14 - - - - - - - 23.5 - 0.0
15/02:30pm NNE 9 15 - - - - - - - 23.7 - 0.0
15/02:00pm NE 9 15 - - - - - - - 23.5 - 0.0
15/01:30pm N 10 14 - - - - - - - 23.4 - 0.0
15/01:00pm N 10 15 - - - - - - - 23.9 - 0.0
15/12:30pm NNE 10 16 - - - - - - - 23.7 - 0.0
15/12:00pm N 10 17 - - - - - - - 23.4 - 0.0
15/11:30am NNE 12 17 - - - - - - - 23.2 - 0.0
15/11:00am N 8 13 - - - - - - - 23.3 - 0.0
15/10:30am NNE 9 13 - - - - - - - 22.0 - 0.0
15/10:00am N 9 12 - - - - - - - 21.7 - 0.0
15/09:30am N 9 14 - - - - - - - 21.8 - 0.0
15/09:00am N 7 12 - - - - - - - 21.3 - 0.0
15/08:30am N 5 9 - - - - - - - 21.0 - 0.0
15/08:00am NNW 5 9 - - - - - - - 20.8 - 0.0
15/07:30am NNW 6 9 - - - - - - - 20.4 - 0.0
15/07:00am NNW 6 9 - - - - - - - 20.3 - 0.0
15/06:30am N 6 9 - - - - - - - 20.3 - 0.0
15/06:00am N 7 11 - - - - - - - 19.9 - 0.0
15/05:30am N 8 11 - - - - - - - 19.7 - 0.0
15/05:00am NNE 7 13 - - - - - - - 19.4 - 0.0
15/04:30am NNE 4 11 - - - - - - - 19.3 - 0.0
15/04:00am W 3 5 - - - - - - - 19.5 - 0.0
15/03:30am NNE 6 10 - - - - - - - 19.7 - 0.0
15/03:00am N 5 8 - - - - - - - 19.8 - 0.0
15/02:30am N 8 14 - - - - - - - 19.9 - 0.0
15/02:00am N 6 10 - - - - - - - 20.0 - 0.0
15/01:30am N 7 13 - - - - - - - 20.4 - 0.0
15/01:00am N 6 11 - - - - - - - 20.4 - 0.0
15/12:30am N 7 13 - - - - - - - 20.5 - 0.0
15/12:00am N 6 11 - - - - - - - 20.6 - 0.0
 
Date/Time
EST
Wind Sea
Height
m
Swell Vis
km
Cloud Weather Temp
°C
Press
hPa
Rain since
9am
mm
Dir  Spd
kts
Gust
kts
Height
m
Period
s
Dir
14/11:30pm N 8 12 - - - - - - - 20.6 - 0.0
14/11:00pm N 7 10 - - - - - - - 20.3 - 0.0
14/10:30pm N 7 12 - - - - - - - 20.2 - 0.0
14/10:00pm N 7 10 - - - - - - - 20.3 - 0.0
14/09:30pm N 6 10 - - - - - - - 20.3 - 0.0
14/09:00pm NNE 6 10 - - - - - - - 20.1 - 0.0
14/08:30pm N 6 10 - - - - - - - 20.2 - 0.0
14/08:00pm N 4 8 - - - - - - - 19.9 - 0.0
14/07:30pm N 6 10 - - - - - - - 20.1 - 0.0
14/07:00pm N 5 10 - - - - - - - 20.1 - 0.0
14/06:30pm NNE 5 8 - - - - - - - 20.1 - 0.0
14/06:00pm NNE 6 11 - - - - - - - 20.4 - 0.0
14/05:30pm NNE 7 12 - - - - - - - 20.7 - 0.0
14/05:00pm NNE 7 11 - - - - - - - 21.2 - 0.0
14/04:30pm NE 9 14 - - - - - - - 21.4 - 0.0
14/04:00pm NNE 9 13 - - - - - - - 21.7 - 0.0
14/03:30pm N 9 16 - - - - - - - 22.0 - 0.0
14/03:00pm NE 10 16 - - - - - - - 21.7 - 0.0
14/02:30pm NE 9 13 - - - - - - - 22.1 - 0.0
14/02:00pm NE 9 12 - - - - - - - 22.4 - 0.0
14/01:30pm NNE 10 13 - - - - - - - 22.4 - 0.0
14/01:00pm NNE 9 13 - - - - - - - 22.4 - 0.0
14/12:30pm NE 9 14 - - - - - - - 22.4 - 0.0
14/12:00pm NNE 8 14 - - - - - - - 22.7 - 0.0
14/11:30am NNE 7 11 - - - - - - - 22.4 - 0.0
14/11:00am N 8 14 - - - - - - - 21.9 - 0.0
14/10:30am N 8 12 - - - - - - - 22.0 - 0.0
14/10:00am N 5 11 - - - - - - - 21.6 - 0.0
14/09:30am NNW 3 5 - - - - - - - 20.5 - 0.0
14/09:00am WSW 3 5 - - - - - - - 20.1 - 0.0
14/08:30am E 1 5 - - - - - - - 19.7 - 0.0
14/08:00am SW 1 2 - - - - - - - 19.4 - 0.0
14/07:30am SW 4 7 - - - - - - - 17.9 - 0.0
14/07:00am SW 3 6 - - - - - - - 15.9 - 0.0
14/06:30am SW 2 4 - - - - - - - 14.9 - 0.0
14/06:00am SW 4 7 - - - - - - - 14.0 - 0.0
14/05:30am SW 3 6 - - - - - - - 13.0 - 0.0
14/05:00am WSW 4 6 - - - - - - - 13.0 - 0.0
14/04:30am SW 4 6 - - - - - - - 13.0 - 0.0
14/04:00am WSW 4 5 - - - - - - - 13.3 - 0.0
14/03:30am SW 4 5 - - - - - - - 13.2 - 0.0
14/03:00am WSW 3 4 - - - - - - - 13.6 - 0.0
14/02:30am WSW 2 3 - - - - - - - 14.4 - 0.0
14/02:00am SSW 4 6 - - - - - - - 15.0 - 0.0
14/01:30am SSW 5 6 - - - - - - - 15.0 - 0.0
14/01:00am SSW 4 6 - - - - - - - 15.4 - 0.0
14/12:30am S 4 7 - - - - - - - 15.6 - 0.0
14/12:00am S 5 7 - - - - - - - 15.7 - 0.0
 
Date/Time
EST
Wind Sea
Height
m
Swell Vis
km
Cloud Weather Temp
°C
Press
hPa
Rain since
9am
mm
Dir  Spd
kts
Gust
kts
Height
m
Period
s
Dir
13/11:30pm S 5 8 - - - - - - - 15.9 - 0.0
13/11:00pm SSE 5 9 - - - - - - - 15.9 - 0.0
13/10:30pm SSE 5 8 - - - - - - - 16.0 - 0.0
13/10:00pm SSE 5 7 - - - - - - - 16.2 - 0.0
13/09:30pm SSE 4 7 - - - - - - - 16.6 - 0.0
13/09:00pm SE 5 8 - - - - - - - 17.1 - 0.0
13/08:30pm SSE 5 9 - - - - - - - 17.4 - 0.0
13/08:00pm SSE 6 11 - - - - - - - 17.8 - 0.0
13/07:30pm SE 8 12 - - - - - - - 18.0 - 0.0
13/07:00pm SE 8 14 - - - - - - - 18.1 - 0.0
13/06:30pm SE 7 15 - - - - - - - 18.2 - 0.0
13/06:00pm SE 7 12 - - - - - - - 18.4 - 0.0
13/05:30pm SE 8 14 - - - - - - - 18.9 - 0.0
13/05:00pm SE 9 16 - - - - - - - 19.8 - 0.0
13/04:30pm SE 10 16 - - - - - - - 20.4 - 0.0
13/04:00pm SE 8 15 - - - - - - - 21.2 - 0.0
13/03:30pm ESE 8 13 - - - - - - - 21.1 - 0.0
13/03:00pm SE 8 13 - - - - - - - 21.6 - 0.0
13/02:30pm ESE 9 14 - - - - - - - 21.9 - 0.0
13/02:00pm ESE 8 15 - - - - - - - 22.7 - 0.0
13/01:30pm ESE 8 14 - - - - - - - 22.2 - 0.0
13/01:00pm ESE 7 11 - - - - - - - 22.1 - 0.0
13/12:30pm SE 6 12 - - - - - - - 21.8 - 0.0
13/12:00pm SE 7 12 - - - - - - - 21.5 - 0.0
13/11:30am ENE 3 6 - - - - - - - 22.5 - 0.0
13/11:00am SSW 3 6 - - - - - - - 21.1 - 0.0
13/10:30am S 7 13 - - - - - - - 21.9 - 0.0
13/10:00am SSW 6 11 - - - - - - - 21.4 - 0.0

Other formats

Comma delimited format used in spreadsheet applications
http://www.bom.gov.au/fwo/IDQ60701/IDQ60701.94561.axf

JavaScript Object Notation format (JSON) in row-major order
http://www.bom.gov.au/fwo/IDQ60701/IDQ60701.94561.json

Data quality

Most of these data are generated automatically and are frequently updated. Quality checks on data are not normally performed. It is possible for incorrect values to appear. Refer to information at About Latest Weather Observations and please check the disclaimer before using these data.